Seale, Alabama
Current Conditions -  °F | °C
As of 1:58 PM on Thursday 29 Jan 2015 (Local Time) from KLSF Reporting Station
Clear Clear  
Wind Chill: 62°   Ceiling: Unl
Heat Index: 62°   Visibility: 10mi
Dew Point: 34°   Wind: 6mph
Humidity: 35%   Direction: 190°S
Pressure: 30.19"   Gusts: NA
Location:  32.3°N, 85.17°W
Report Text: KLSF 291958Z AUTO 19005KT 10SM CLR 17/01 A3019 RMK AO2 SLP227 T01670011
Loading
Personal Weather Stations






























Interactive Weather Map New forecast layout! Learn more

10-Day Weather Forecast

Advertisements
Track Severe Weather on mobile